createdAt,value
2022-10-28T00:00:01.627Z,92.00
2022-10-28T00:03:47.553Z,92.10
2022-10-28T00:07:29.642Z,92.30
2022-10-28T00:11:20.546Z,92.20
2022-10-28T00:15:03.245Z,92.00
2022-10-28T00:18:45.562Z,92.20
2022-10-28T00:22:27.892Z,92.20
2022-10-28T00:26:12.889Z,92.30
2022-10-28T00:29:54.747Z,92.40
2022-10-28T00:33:36.729Z,92.50
2022-10-28T00:37:18.562Z,92.40
2022-10-28T00:41:00.484Z,92.40
2022-10-28T00:44:54.486Z,92.40
2022-10-28T00:48:41.414Z,91.40
2022-10-28T00:52:27.319Z,92.20
2022-10-28T00:56:10.218Z,92.10
2022-10-28T00:59:54.140Z,92.20
2022-10-28T01:03:37.087Z,92.20
2022-10-28T01:07:19.665Z,92.20
2022-10-28T01:11:20.631Z,92.20
2022-10-28T01:15:33.522Z,91.60
2022-10-28T01:19:43.223Z,91.30
2022-10-28T01:23:55.015Z,91.60
2022-10-28T01:27:48.891Z,92.10
2022-10-28T01:31:41.967Z,91.90
2022-10-28T01:35:38.485Z,91.70
2022-10-28T01:39:29.765Z,91.90
2022-10-28T01:43:41.315Z,91.80
2022-10-28T01:47:27.420Z,91.40
2022-10-28T01:51:29.436Z,92.20
2022-10-28T01:55:17.154Z,91.20
2022-10-28T01:59:01.979Z,92.00
2022-10-28T02:02:47.585Z,92.10
2022-10-28T02:06:31.783Z,92.10
2022-10-28T02:10:22.327Z,92.00
2022-10-28T02:14:25.535Z,91.80
2022-10-28T02:18:30.644Z,91.40
2022-10-28T02:22:20.824Z,91.30
2022-10-28T02:26:41.269Z,92.10
2022-10-28T02:30:32.918Z,91.30
2022-10-28T02:34:40.377Z,92.40
2022-10-28T02:38:46.115Z,91.20
2022-10-28T02:42:32.929Z,91.10
2022-10-28T02:46:17.030Z,92.30
2022-10-28T02:50:04.024Z,92.20
2022-10-28T02:54:08.874Z,92.20
2022-10-28T02:57:51.225Z,91.30
2022-10-28T03:01:34.842Z,92.40
2022-10-28T03:05:17.081Z,92.30
2022-10-28T03:08:58.913Z,92.20
2022-10-28T03:12:40.747Z,92.40
2022-10-28T03:16:22.700Z,92.60
2022-10-28T03:20:04.899Z,92.60
2022-10-28T03:23:49.402Z,92.50
2022-10-28T03:27:31.271Z,92.60
2022-10-28T03:31:13.116Z,92.70
2022-10-28T03:34:55.083Z,92.60
2022-10-28T03:38:37.032Z,92.70
2022-10-28T03:42:18.951Z,92.50
2022-10-28T03:46:00.781Z,92.30
2022-10-28T03:49:42.724Z,91.90
2022-10-28T03:53:27.647Z,91.40
2022-10-28T03:57:12.311Z,90.90
2022-10-28T04:00:55.326Z,90.90
2022-10-28T04:04:37.473Z,90.70
2022-10-28T04:08:20.307Z,90.60
2022-10-28T04:12:02.223Z,90.40
2022-10-28T04:15:44.327Z,90.40
2022-10-28T04:19:26.287Z,90.50
2022-10-28T04:23:11.058Z,90.90
2022-10-28T04:26:52.886Z,91.20
2022-10-28T04:30:34.754Z,91.40
2022-10-28T04:34:17.119Z,91.60
2022-10-28T04:37:58.944Z,91.50
2022-10-28T04:41:41.130Z,91.50
2022-10-28T04:45:22.971Z,91.50
2022-10-28T04:49:04.903Z,91.40
2022-10-28T04:52:46.792Z,91.30
2022-10-28T04:56:31.060Z,91.10
2022-10-28T05:00:13.448Z,90.90
2022-10-28T05:03:55.252Z,90.80
2022-10-28T05:07:38.046Z,90.60
2022-10-28T05:11:19.873Z,90.70
2022-10-28T05:15:01.684Z,91.10
2022-10-28T05:22:25.207Z,91.60
2022-10-28T05:26:07.098Z,91.60
2022-10-28T05:29:48.940Z,91.80
2022-10-28T05:33:30.872Z,91.90
2022-10-28T05:37:12.730Z,92.00
2022-10-28T05:40:54.770Z,92.10
2022-10-28T05:44:36.575Z,92.20
2022-10-28T05:48:18.392Z,92.20
2022-10-28T05:52:00.300Z,92.40
2022-10-28T05:55:46.779Z,92.40
2022-10-28T05:59:29.850Z,92.60
2022-10-28T06:03:12.531Z,92.70
2022-10-28T06:06:57.586Z,92.70
2022-10-28T06:10:40.480Z,92.80
2022-10-28T06:14:20.811Z,92.80
2022-10-28T06:18:03.138Z,92.80
2022-10-28T06:21:45.054Z,92.80
2022-10-28T06:25:27.045Z,92.70
2022-10-28T06:29:10.075Z,92.50
2022-10-28T06:32:52.003Z,92.40
2022-10-28T06:36:33.949Z,92.30
2022-10-28T06:40:15.895Z,92.30
2022-10-28T06:43:57.909Z,92.20
2022-10-28T06:47:41.696Z,92.00
2022-10-28T06:51:24.358Z,91.80
2022-10-28T06:55:06.677Z,91.60
2022-10-28T06:58:53.413Z,91.50
2022-10-28T07:02:35.231Z,90.80
2022-10-28T07:06:17.638Z,91.20
2022-10-28T07:10:05.794Z,90.90
2022-10-28T07:13:48.988Z,90.10
2022-10-28T07:17:31.023Z,90.60
2022-10-28T07:21:14.152Z,90.40
2022-10-28T07:24:56.197Z,90.10
2022-10-28T07:28:38.228Z,90.10
2022-10-28T07:32:20.161Z,90.10
2022-10-28T07:36:06.081Z,90.10
2022-10-28T07:39:47.949Z,89.70
2022-10-28T07:43:29.852Z,90.00
2022-10-28T07:47:11.858Z,90.00
2022-10-28T07:50:54.680Z,89.90
2022-10-28T07:54:36.499Z,89.80
2022-10-28T07:58:18.555Z,89.80
2022-10-28T08:02:00.544Z,89.20
2022-10-28T08:05:42.448Z,89.20
2022-10-28T08:09:24.530Z,89.10
2022-10-28T08:13:07.246Z,89.00
2022-10-28T08:16:49.088Z,89.00
2022-10-28T08:20:31.076Z,88.90
2022-10-28T08:24:13.083Z,89.00
2022-10-28T08:27:55.113Z,88.90
2022-10-28T08:31:36.949Z,88.80
2022-10-28T08:35:18.847Z,88.90
2022-10-28T08:39:01.864Z,88.90
2022-10-28T08:42:49.801Z,88.90
2022-10-28T08:46:37.937Z,88.60
2022-10-28T08:50:23.138Z,88.20
2022-10-28T08:54:26.702Z,88.70
2022-10-28T08:58:28.571Z,88.50
2022-10-28T09:02:23.651Z,88.80
2022-10-28T09:06:08.169Z,86.50
2022-10-28T09:09:51.541Z,88.50
2022-10-28T09:13:42.077Z,88.50
2022-10-28T09:17:54.281Z,88.30
2022-10-28T09:21:42.581Z,85.80
2022-10-28T09:25:51.376Z,86.90
2022-10-28T09:29:58.194Z,85.30
2022-10-28T09:33:51.406Z,84.70
2022-10-28T09:37:38.170Z,85.70
2022-10-28T09:41:23.966Z,87.90
2022-10-28T09:45:18.000Z,86.90
2022-10-28T09:49:05.315Z,83.70
2022-10-28T09:53:10.520Z,83.40
2022-10-28T10:00:48.855Z,81.10
2022-10-28T10:04:31.539Z,80.30
2022-10-28T10:08:16.647Z,79.30
2022-10-28T10:12:08.071Z,77.00
2022-10-28T10:15:55.532Z,72.80
2022-10-28T10:20:13.612Z,72.90
2022-10-28T10:23:55.515Z,67.80
2022-10-28T10:27:37.975Z,73.40
2022-10-28T10:31:22.562Z,71.40
2022-10-28T10:35:06.967Z,70.10
2022-10-28T10:38:54.838Z,69.10
2022-10-28T10:42:42.705Z,68.00
2022-10-28T10:46:33.748Z,68.50
2022-10-28T10:50:28.630Z,66.90
2022-10-28T10:54:15.086Z,62.70
2022-10-28T10:57:57.902Z,62.10
2022-10-28T11:01:40.851Z,63.80
2022-10-28T11:05:27.202Z,62.00
2022-10-28T11:09:26.139Z,60.90
2022-10-28T11:13:33.664Z,53.10
2022-10-28T11:17:25.204Z,52.90
2022-10-28T11:25:34.592Z,52.30
2022-10-28T11:29:17.454Z,52.00
2022-10-28T11:33:30.499Z,56.80
2022-10-28T11:37:27.617Z,51.90
2022-10-28T11:41:37.728Z,51.90
2022-10-28T11:45:25.145Z,51.00
2022-10-28T11:49:24.133Z,53.40
2022-10-28T11:53:26.830Z,54.90
2022-10-28T11:57:15.033Z,50.40
2022-10-28T12:01:21.191Z,51.90
2022-10-28T12:05:07.611Z,48.30
2022-10-28T12:09:33.892Z,49.40
2022-10-28T12:13:37.069Z,48.10
2022-10-28T12:18:10.104Z,46.00
2022-10-28T12:22:12.106Z,47.70
2022-10-28T12:25:57.644Z,45.60
2022-10-28T12:29:44.408Z,47.60
2022-10-28T12:33:34.852Z,47.50
2022-10-28T12:37:27.940Z,47.10
2022-10-28T12:41:20.311Z,44.30
2022-10-28T12:45:06.903Z,43.80
2022-10-28T12:48:54.230Z,46.70
2022-10-28T12:53:16.093Z,46.10
2022-10-28T12:57:14.736Z,44.00
2022-10-28T13:01:19.678Z,44.00
2022-10-28T13:05:04.879Z,44.70
2022-10-28T13:09:11.190Z,48.40
2022-10-28T13:13:28.168Z,46.10
2022-10-28T13:17:33.030Z,47.40
2022-10-28T13:21:23.286Z,49.70
2022-10-28T13:25:20.051Z,52.20
2022-10-28T13:29:07.526Z,48.70
2022-10-28T13:33:22.406Z,51.00
2022-10-28T13:37:07.539Z,49.10
2022-10-28T13:41:14.452Z,53.40
2022-10-28T13:45:02.555Z,49.50
2022-10-28T13:48:49.048Z,52.30
2022-10-28T13:52:49.316Z,53.00
2022-10-28T13:56:59.804Z,52.90
2022-10-28T14:00:46.744Z,49.70
2022-10-28T14:04:42.361Z,53.40
2022-10-28T14:08:24.744Z,51.60
2022-10-28T14:12:24.920Z,55.60
2022-10-28T14:16:20.546Z,53.40
2022-10-28T14:20:07.404Z,55.00
2022-10-28T14:23:50.744Z,58.00
2022-10-28T14:27:43.613Z,58.70
2022-10-28T14:31:55.087Z,57.60
2022-10-28T14:35:44.244Z,57.60
2022-10-28T14:39:35.387Z,59.50
2022-10-28T14:43:38.035Z,60.80
2022-10-28T14:47:39.153Z,59.40
2022-10-28T14:51:44.287Z,61.60
2022-10-28T14:55:31.520Z,60.00
2022-10-28T14:59:25.119Z,62.10
2022-10-28T15:03:11.431Z,61.40
2022-10-28T15:06:53.822Z,62.60
2022-10-28T15:10:37.463Z,63.40
2022-10-28T15:14:28.321Z,64.00
2022-10-28T15:18:23.025Z,64.20
2022-10-28T15:22:21.298Z,64.10
2022-10-28T15:26:21.846Z,64.50
2022-10-28T15:30:13.364Z,64.40
2022-10-28T15:33:55.612Z,65.90
2022-10-28T15:37:38.432Z,66.40
2022-10-28T15:41:23.856Z,66.60
2022-10-28T15:45:07.043Z,66.80
2022-10-28T15:48:59.693Z,67.20
2022-10-28T15:52:42.343Z,67.40
2022-10-28T15:56:25.988Z,68.00
2022-10-28T16:00:23.199Z,68.20
2022-10-28T16:04:48.060Z,68.00
2022-10-28T16:08:32.423Z,67.90
2022-10-28T16:12:17.463Z,68.90
2022-10-28T16:16:04.494Z,69.20
2022-10-28T16:19:52.697Z,69.20
2022-10-28T16:23:39.428Z,69.50
2022-10-28T16:27:27.220Z,69.70
2022-10-28T16:31:17.464Z,69.90
2022-10-28T16:35:01.412Z,70.20
2022-10-28T16:38:43.595Z,70.40
2022-10-28T16:42:26.558Z,70.80
2022-10-28T16:46:15.156Z,71.00
2022-10-28T16:49:57.692Z,71.30
2022-10-28T16:53:43.397Z,71.40
2022-10-28T16:57:27.805Z,71.70
2022-10-28T17:01:18.613Z,71.90
2022-10-28T17:05:01.082Z,72.20
2022-10-28T17:09:01.927Z,72.20
2022-10-28T17:12:44.564Z,72.40
2022-10-28T17:16:26.606Z,72.50
2022-10-28T17:20:09.231Z,72.70
2022-10-28T17:23:51.558Z,72.90
2022-10-28T17:27:33.611Z,73.20
2022-10-28T17:31:19.145Z,73.40
2022-10-28T17:35:04.359Z,73.60
2022-10-28T17:38:48.829Z,73.80
2022-10-28T17:42:30.711Z,74.00
2022-10-28T17:46:15.928Z,74.20
2022-10-28T17:49:58.775Z,74.40
2022-10-28T17:53:40.671Z,74.50
2022-10-28T17:57:22.925Z,74.80
2022-10-28T18:01:09.110Z,74.90
2022-10-28T18:04:51.844Z,75.10
2022-10-28T18:08:36.021Z,75.20
2022-10-28T18:12:18.018Z,75.40
2022-10-28T18:16:06.883Z,75.50
2022-10-28T18:19:48.900Z,76.10
2022-10-28T18:23:30.727Z,75.80
2022-10-28T18:27:12.658Z,76.00
2022-10-28T18:30:54.502Z,76.10
2022-10-28T18:34:36.607Z,76.30
2022-10-28T18:38:18.475Z,76.40
2022-10-28T18:42:00.395Z,76.50
2022-10-28T18:45:42.252Z,76.70
2022-10-28T18:49:26.585Z,76.90
2022-10-28T18:53:09.842Z,77.20
2022-10-28T18:56:55.173Z,77.50
2022-10-28T19:00:40.234Z,77.60
2022-10-28T19:04:22.317Z,77.70
2022-10-28T19:08:05.989Z,77.90
2022-10-28T19:11:48.029Z,78.20
2022-10-28T19:15:29.835Z,78.30
2022-10-28T19:19:12.147Z,78.50
2022-10-28T19:22:57.749Z,78.60
2022-10-28T19:26:40.258Z,78.70
2022-10-28T19:30:22.362Z,78.80
2022-10-28T19:34:04.320Z,79.10
2022-10-28T19:37:50.415Z,79.30
2022-10-28T19:41:33.704Z,79.50
2022-10-28T19:45:15.632Z,79.60
2022-10-28T19:49:02.201Z,79.80
2022-10-28T19:56:36.502Z,80.20
2022-10-28T20:00:18.757Z,80.20
2022-10-28T20:04:00.887Z,80.40
2022-10-28T20:07:42.791Z,80.70
2022-10-28T20:15:30.826Z,81.10
2022-10-28T20:19:13.076Z,80.70
2022-10-28T20:22:55.550Z,80.70
2022-10-28T20:26:38.938Z,80.80
2022-10-28T20:30:23.072Z,80.80
2022-10-28T20:34:06.108Z,80.80
2022-10-28T20:38:08.807Z,80.90
2022-10-28T20:41:51.379Z,81.00
2022-10-28T20:45:40.001Z,81.00
2022-10-28T20:49:21.941Z,81.00
2022-10-28T20:53:04.116Z,81.00
2022-10-28T20:56:46.008Z,81.10
2022-10-28T21:00:28.003Z,81.10
2022-10-28T21:04:11.461Z,81.20
2022-10-28T21:07:55.094Z,81.20
2022-10-28T21:11:37.784Z,81.30
2022-10-28T21:15:22.013Z,81.30
2022-10-28T21:19:03.896Z,81.30
2022-10-28T21:22:45.938Z,81.30
2022-10-28T21:26:27.977Z,81.40
2022-10-28T21:30:10.641Z,81.40
2022-10-28T21:33:53.379Z,81.40
2022-10-28T21:37:37.074Z,81.40
2022-10-28T21:41:26.921Z,81.40
2022-10-28T21:45:10.510Z,81.60
2022-10-28T21:48:54.423Z,81.60
2022-10-28T21:52:39.077Z,81.70
2022-10-28T21:56:21.872Z,81.70
2022-10-28T22:00:06.054Z,81.70
2022-10-28T22:03:48.196Z,81.70
2022-10-28T22:07:31.101Z,81.70
2022-10-28T22:11:22.994Z,81.60
2022-10-28T22:15:05.436Z,81.80
2022-10-28T22:18:47.885Z,81.60
2022-10-28T22:22:31.803Z,81.60
2022-10-28T22:26:18.618Z,81.60
2022-10-28T22:30:00.487Z,81.70
2022-10-28T22:33:42.480Z,81.50
2022-10-28T22:37:24.529Z,81.60
2022-10-28T22:41:07.657Z,81.60
2022-10-28T22:44:49.651Z,81.60
2022-10-28T22:48:32.507Z,81.60
2022-10-28T22:52:14.485Z,81.60
2022-10-28T22:55:57.457Z,81.60
2022-10-28T22:59:42.974Z,81.60
2022-10-28T23:03:24.830Z,81.60
2022-10-28T23:07:06.704Z,81.60
2022-10-28T23:10:48.607Z,81.60
2022-10-28T23:14:30.545Z,81.50
2022-10-28T23:18:12.448Z,81.60
2022-10-28T23:21:56.784Z,81.60
2022-10-28T23:25:42.370Z,81.60
2022-10-28T23:29:24.300Z,81.70
2022-10-28T23:33:06.285Z,81.60
2022-10-28T23:36:54.163Z,81.60
2022-10-28T23:40:39.946Z,81.60
2022-10-28T23:44:21.916Z,81.70
2022-10-28T23:48:04.061Z,81.70
2022-10-28T23:51:46.201Z,81.70
2022-10-28T23:55:28.134Z,81.70
2022-10-28T23:59:09.970Z,81.70
